SANTO DOMINGO 29 DE MARZO DEL 2017

 

FTDR31 MDSD 290400Z
TAF

 

TAF MDPP 290400Z 2906/3006 00000KT 9999 SCT016 BKN070 PROB30 2906/2912 7000 -RA SCT014 BKN070=

TAF MDST 290400Z 2906/3006 29008KT 9999 BKN016 PROB30 2906/2908 6000 -RA BKN014=

TAF MDPC 290400Z 2906/3006 02005KT 9999 FEW018 PROB30 2908/2914 8000 -SHRA SCT018 SCT080=

TAF MDBH 290400Z 2906/3006 00000KT 9999 FEW018 BECMG 2912/2914 27006KT=

TAF MDJB 290400Z 2906/3006 00000KT 9999 FEW018 BECMG 2914 /2916 03010KT=

TAF MDSD 290400Z 2906/3006 01004KT 9999 FEW018 BECMG 2916/2918 21006KT SCT022=

TAF MDLR 290400Z 2906/3006 00000KT 9999 FEW016 BECMG 2914/2916 03010KT SCT020=

TAF MDCY 290400Z 2906/3006 00000KT 9999 SCT016 BECMG 2914/2916 09010KT SCT022=

 

MDPP AEROPUERTO INTERNACIONAL LA UNION PUERTO PLATA

MDST AEROPUERTO INTERNACIONAL DE SANTIAGO

MDPC AEROPUERTO INTERNACIONAL PUNTA CANA

MDBH AEROPUERTO INTERNACIONAL DE BARAHONA

MDJB AEROPUERTO INTERNACIONAL JOAQUIN BALAGUER

MDSD AEROPUERTO INTERNACIONAL DE LAS AMERICAS

MDLR AEROPUERTO INTERNACIONAL LA ROMANA

MDCY AEROPUERTO INTERNACIONAL DE CATEY

 

ROBIN RODRIGUEZ

MDPP // J.CASTILLO

MDST // D.VOLQUEZ

MDPC // L.MARTE